sensor_id;sensor_type;location;lat;lon;timestamp;P1;durP1;ratioP1;P2;durP2;ratioP2
31974;SDS011;18500;43.618;1.474;2024-03-29T06:56:36;37.53;;;7.32;;
31974;SDS011;18500;43.618;1.474;2024-03-29T06:59:01;12.55;;;7.13;;
31974;SDS011;18500;43.618;1.474;2024-03-29T07:01:27;10.63;;;7.05;;
31974;SDS011;18500;43.618;1.474;2024-03-29T07:03:52;17.95;;;10.35;;
31974;SDS011;18500;43.618;1.474;2024-03-29T07:06:18;14.25;;;12.63;;
31974;SDS011;18500;43.618;1.474;2024-03-29T07:08:44;31.30;;;16.30;;
31974;SDS011;18500;43.618;1.474;2024-03-29T07:11:10;33.45;;;19.55;;
31974;SDS011;18500;43.618;1.474;2024-03-29T07:13:36;26.77;;;24.17;;
31974;SDS011;18500;43.618;1.474;2024-03-29T07:16:02;37.03;;;33.83;;
31974;SDS011;18500;43.618;1.474;2024-03-29T07:18:28;40.30;;;37.50;;
31974;SDS011;18500;43.618;1.474;2024-03-29T07:20:54;45.55;;;42.17;;
31974;SDS011;18500;43.618;1.474;2024-03-29T07:23:20;51.67;;;48.58;;
31974;SDS011;18500;43.618;1.474;2024-03-29T07:25:57;57.78;;;53.78;;
31974;SDS011;18500;43.618;1.474;2024-03-29T07:28:24;57.05;;;52.08;;
31974;SDS011;18500;43.618;1.474;2024-03-29T07:30:50;54.88;;;51.35;;
31974;SDS011;18500;43.618;1.474;2024-03-29T07:33:18;65.28;;;61.55;;
31974;SDS011;18500;43.618;1.474;2024-03-29T07:35:46;77.10;;;72.45;;
31974;SDS011;18500;43.618;1.474;2024-03-29T07:38:14;76.75;;;72.43;;
31974;SDS011;18500;43.618;1.474;2024-03-29T07:40:42;83.65;;;78.93;;
31974;SDS011;18500;43.618;1.474;2024-03-29T07:43:08;79.60;;;71.78;;
31974;SDS011;18500;43.618;1.474;2024-03-29T07:45:34;64.57;;;60.60;;
31974;SDS011;18500;43.618;1.474;2024-03-29T07:48:00;56.97;;;53.42;;
31974;SDS011;18500;43.618;1.474;2024-03-29T07:50:25;64.72;;;60.25;;
31974;SDS011;18500;43.618;1.474;2024-03-29T07:52:51;65.20;;;61.20;;
31974;SDS011;18500;43.618;1.474;2024-03-29T07:55:17;79.35;;;73.32;;
31974;SDS011;18500;43.618;1.474;2024-03-29T07:57:43;74.80;;;70.30;;
31974;SDS011;18500;43.618;1.474;2024-03-29T08:00:08;80.53;;;75.28;;
31974;SDS011;18500;43.618;1.474;2024-03-29T08:02:35;83.47;;;78.82;;
31974;SDS011;18500;43.618;1.474;2024-03-29T08:05:03;78.38;;;73.38;;
31974;SDS011;18500;43.618;1.474;2024-03-29T08:07:31;92.03;;;87.03;;
31974;SDS011;18500;43.618;1.474;2024-03-29T08:09:57;86.65;;;81.95;;
31974;SDS011;18500;43.618;1.474;2024-03-29T08:12:23;102.95;;;97.63;;
31974;SDS011;18500;43.618;1.474;2024-03-29T08:14:48;95.65;;;90.28;;
31974;SDS011;18500;43.618;1.474;2024-03-29T08:17:14;103.25;;;97.45;;
31974;SDS011;18500;43.618;1.474;2024-03-29T08:19:40;100.38;;;95.00;;
31974;SDS011;18500;43.618;1.474;2024-03-29T08:22:07;90.38;;;85.47;;
31974;SDS011;18500;43.618;1.474;2024-03-29T08:24:35;81.93;;;77.22;;
31974;SDS011;18500;43.618;1.474;2024-03-29T08:27:01;83.78;;;79.30;;
31974;SDS011;18500;43.618;1.474;2024-03-29T08:29:27;84.57;;;79.35;;
31974;SDS011;18500;43.618;1.474;2024-03-29T08:31:53;85.22;;;80.55;;
31974;SDS011;18500;43.618;1.474;2024-03-29T08:34:19;93.00;;;88.05;;
31974;SDS011;18500;43.618;1.474;2024-03-29T08:36:44;93.78;;;88.53;;
31974;SDS011;18500;43.618;1.474;2024-03-29T08:39:10;95.38;;;90.03;;
31974;SDS011;18500;43.618;1.474;2024-03-29T08:41:36;95.15;;;88.38;;
31974;SDS011;18500;43.618;1.474;2024-03-29T08:44:02;76.43;;;71.70;;
31974;SDS011;18500;43.618;1.474;2024-03-29T08:46:28;89.53;;;84.78;;
31974;SDS011;18500;43.618;1.474;2024-03-29T08:48:54;93.07;;;87.80;;
31974;SDS011;18500;43.618;1.474;2024-03-29T08:51:22;100.15;;;94.57;;
31974;SDS011;18500;43.618;1.474;2024-03-29T08:53:47;100.78;;;94.88;;
31974;SDS011;18500;43.618;1.474;2024-03-29T08:56:13;106.90;;;100.55;;
31974;SDS011;18500;43.618;1.474;2024-03-29T08:58:40;108.15;;;101.95;;
31974;SDS011;18500;43.618;1.474;2024-03-29T09:01:06;109.78;;;103.95;;
31974;SDS011;18500;43.618;1.474;2024-03-29T09:03:32;110.55;;;104.28;;
31974;SDS011;18500;43.618;1.474;2024-03-29T09:05:58;108.22;;;102.40;;
31974;SDS011;18500;43.618;1.474;2024-03-29T09:08:23;115.32;;;109.10;;
31974;SDS011;18500;43.618;1.474;2024-03-29T09:10:49;108.93;;;102.85;;
31974;SDS011;18500;43.618;1.474;2024-03-29T09:13:15;124.03;;;117.32;;
31974;SDS011;18500;43.618;1.474;2024-03-29T09:15:40;112.05;;;105.93;;
31974;SDS011;18500;43.618;1.474;2024-03-29T09:18:07;103.70;;;97.65;;
31974;SDS011;18500;43.618;1.474;2024-03-29T09:20:42;108.32;;;102.50;;
31974;SDS011;18500;43.618;1.474;2024-03-29T09:23:09;110.47;;;104.00;;
31974;SDS011;18500;43.618;1.474;2024-03-29T09:25:39;117.45;;;110.97;;
31974;SDS011;18500;43.618;1.474;2024-03-29T09:28:05;103.05;;;97.55;;
31974;SDS011;18500;43.618;1.474;2024-03-29T09:30:31;94.25;;;88.45;;
31974;SDS011;18500;43.618;1.474;2024-03-29T09:32:57;96.90;;;91.20;;
31974;SDS011;18500;43.618;1.474;2024-03-29T09:35:23;74.95;;;70.35;;
31974;SDS011;18500;43.618;1.474;2024-03-29T09:37:49;73.07;;;68.45;;
31974;SDS011;18500;43.618;1.474;2024-03-29T09:40:15;55.60;;;51.80;;
31974;SDS011;18500;43.618;1.474;2024-03-29T09:42:43;40.28;;;37.28;;
31974;SDS011;18500;43.618;1.474;2024-03-29T09:45:09;31.00;;;27.90;;
31974;SDS011;18500;43.618;1.474;2024-03-29T09:47:36;32.05;;;29.30;;
31974;SDS011;18500;43.618;1.474;2024-03-29T09:50:02;26.23;;;23.67;;
31974;SDS011;18500;43.618;1.474;2024-03-29T09:52:31;15.52;;;11.57;;
31974;SDS011;18500;43.618;1.474;2024-03-29T09:54:58;12.63;;;9.75;;
31974;SDS011;18500;43.618;1.474;2024-03-29T09:57:25;16.17;;;9.00;;
31974;SDS011;18500;43.618;1.474;2024-03-29T09:59:54;23.50;;;8.30;;
31974;SDS011;18500;43.618;1.474;2024-03-29T10:02:25;18.60;;;9.52;;
31974;SDS011;18500;43.618;1.474;2024-03-29T10:04:53;16.05;;;4.55;;
31974;SDS011;18500;43.618;1.474;2024-03-29T10:07:22;21.27;;;6.03;;
31974;SDS011;18500;43.618;1.474;2024-03-29T10:09:49;14.68;;;5.68;;
31974;SDS011;18500;43.618;1.474;2024-03-29T10:12:16;18.90;;;5.18;;
31974;SDS011;18500;43.618;1.474;2024-03-29T10:14:51;14.52;;;5.68;;
31974;SDS011;18500;43.618;1.474;2024-03-29T10:17:33;14.95;;;5.75;;
31974;SDS011;18500;43.618;1.474;2024-03-29T10:20:02;17.08;;;6.30;;
31974;SDS011;18500;43.618;1.474;2024-03-29T10:22:29;10.98;;;6.90;;
31974;SDS011;18500;43.618;1.474;2024-03-29T10:25:00;15.60;;;11.00;;
31974;SDS011;18500;43.618;1.474;2024-03-29T10:27:26;14.88;;;13.43;;
31974;SDS011;18500;43.618;1.474;2024-03-29T10:29:55;19.20;;;17.25;;
31974;SDS011;18500;43.618;1.474;2024-03-29T10:32:21;22.90;;;20.85;;
31974;SDS011;18500;43.618;1.474;2024-03-29T10:34:48;31.08;;;28.10;;
31974;SDS011;18500;43.618;1.474;2024-03-29T10:37:14;25.40;;;23.30;;
31974;SDS011;18500;43.618;1.474;2024-03-29T10:39:44;34.40;;;31.52;;
31974;SDS011;18500;43.618;1.474;2024-03-29T10:42:09;43.78;;;40.38;;
31974;SDS011;18500;43.618;1.474;2024-03-29T10:44:37;39.58;;;36.92;;
31974;SDS011;18500;43.618;1.474;2024-03-29T10:47:05;51.45;;;48.00;;
31974;SDS011;18500;43.618;1.474;2024-03-29T10:49:33;52.67;;;49.30;;
31974;SDS011;18500;43.618;1.474;2024-03-29T10:52:00;59.65;;;55.50;;
31974;SDS011;18500;43.618;1.474;2024-03-29T10:54:27;49.28;;;46.20;;
31974;SDS011;18500;43.618;1.474;2024-03-29T10:57:02;56.05;;;52.95;;
31974;SDS011;18500;43.618;1.474;2024-03-29T10:59:48;56.58;;;52.72;;
31974;SDS011;18500;43.618;1.474;2024-03-29T11:02:35;53.20;;;49.60;;
31974;SDS011;18500;43.618;1.474;2024-03-29T11:05:12;57.97;;;54.45;;
31974;SDS011;18500;43.618;1.474;2024-03-29T11:07:40;68.85;;;64.88;;
31974;SDS011;18500;43.618;1.474;2024-03-29T11:10:08;56.22;;;52.58;;
31974;SDS011;18500;43.618;1.474;2024-03-29T11:12:59;57.42;;;53.83;;
31974;SDS011;18500;43.618;1.474;2024-03-29T11:15:30;50.42;;;47.13;;
31974;SDS011;18500;43.618;1.474;2024-03-29T11:17:57;53.13;;;49.58;;
31974;SDS011;18500;43.618;1.474;2024-03-29T11:20:26;52.30;;;48.60;;
31974;SDS011;18500;43.618;1.474;2024-03-29T11:23:00;48.70;;;45.63;;
31974;SDS011;18500;43.618;1.474;2024-03-29T11:28:12;42.42;;;39.40;;
31974;SDS011;18500;43.618;1.474;2024-03-29T11:30:39;33.17;;;30.38;;
31974;SDS011;18500;43.618;1.474;2024-03-29T11:35:57;37.50;;;35.00;;
31974;SDS011;18500;43.618;1.474;2024-03-29T11:38:34;30.77;;;28.83;;
31974;SDS011;18500;43.618;1.474;2024-03-29T11:41:03;22.98;;;20.58;;
31974;SDS011;18500;43.618;1.474;2024-03-29T11:43:36;34.72;;;31.92;;
31974;SDS011;18500;43.618;1.474;2024-03-29T11:46:06;32.35;;;29.80;;
31974;SDS011;18500;43.618;1.474;2024-03-29T11:48:33;25.95;;;23.60;;
31974;SDS011;18500;43.618;1.474;2024-03-29T11:51:00;28.27;;;26.10;;
31974;SDS011;18500;43.618;1.474;2024-03-29T11:53:28;28.88;;;26.23;;
31974;SDS011;18500;43.618;1.474;2024-03-29T11:55:55;26.08;;;23.80;;
31974;SDS011;18500;43.618;1.474;2024-03-29T11:58:22;22.52;;;20.52;;
31974;SDS011;18500;43.618;1.474;2024-03-29T12:00:52;30.17;;;27.77;;
31974;SDS011;18500;43.618;1.474;2024-03-29T12:03:20;28.90;;;25.00;;
31974;SDS011;18500;43.618;1.474;2024-03-29T12:05:47;24.48;;;22.40;;
31974;SDS011;18500;43.618;1.474;2024-03-29T12:08:19;14.27;;;12.93;;
31974;SDS011;18500;43.618;1.474;2024-03-29T12:10:48;20.65;;;11.15;;
31974;SDS011;18500;43.618;1.474;2024-03-29T12:13:17;12.32;;;9.35;;
31974;SDS011;18500;43.618;1.474;2024-03-29T12:15:43;15.20;;;12.27;;
31974;SDS011;18500;43.618;1.474;2024-03-29T12:18:09;18.67;;;15.60;;
31974;SDS011;18500;43.618;1.474;2024-03-29T12:20:37;13.35;;;11.30;;
31974;SDS011;18500;43.618;1.474;2024-03-29T12:23:04;15.30;;;13.23;;
31974;SDS011;18500;43.618;1.474;2024-03-29T12:25:32;21.48;;;12.18;;
31974;SDS011;18500;43.618;1.474;2024-03-29T12:27:59;17.92;;;10.02;;
31974;SDS011;18500;43.618;1.474;2024-03-29T12:30:25;13.82;;;9.13;;
31974;SDS011;18500;43.618;1.474;2024-03-29T12:33:08;21.27;;;12.93;;
31974;SDS011;18500;43.618;1.474;2024-03-29T12:35:36;21.33;;;12.93;;
31974;SDS011;18500;43.618;1.474;2024-03-29T12:38:03;14.85;;;8.15;;
31974;SDS011;18500;43.618;1.474;2024-03-29T12:40:30;15.20;;;7.32;;
31974;SDS011;18500;43.618;1.474;2024-03-29T12:43:03;13.48;;;6.28;;
31974;SDS011;18500;43.618;1.474;2024-03-29T12:45:31;10.85;;;6.30;;
31974;SDS011;18500;43.618;1.474;2024-03-29T12:47:57;10.07;;;5.15;;
31974;SDS011;18500;43.618;1.474;2024-03-29T12:52:59;22.63;;;11.27;;
31974;SDS011;18500;43.618;1.474;2024-03-29T12:55:26;14.65;;;7.25;;
31974;SDS011;18500;43.618;1.474;2024-03-29T12:57:56;15.73;;;5.20;;
31974;SDS011;18500;43.618;1.474;2024-03-29T13:00:22;18.35;;;6.13;;
31974;SDS011;18500;43.618;1.474;2024-03-29T13:02:48;15.90;;;5.28;;
31974;SDS011;18500;43.618;1.474;2024-03-29T13:05:14;12.38;;;4.63;;
31974;SDS011;18500;43.618;1.474;2024-03-29T13:07:40;16.23;;;6.25;;
31974;SDS011;18500;43.618;1.474;2024-03-29T13:10:06;15.23;;;4.82;;
31974;SDS011;18500;43.618;1.474;2024-03-29T13:12:38;14.70;;;5.50;;
31974;SDS011;18500;43.618;1.474;2024-03-29T13:15:26;14.70;;;5.05;;
31974;SDS011;18500;43.618;1.474;2024-03-29T13:17:53;20.48;;;6.90;;
31974;SDS011;18500;43.618;1.474;2024-03-29T13:20:20;10.95;;;4.70;;
31974;SDS011;18500;43.618;1.474;2024-03-29T13:22:47;21.45;;;5.57;;
31974;SDS011;18500;43.618;1.474;2024-03-29T13:25:15;14.95;;;4.90;;
31974;SDS011;18500;43.618;1.474;2024-03-29T13:27:43;12.70;;;4.85;;
31974;SDS011;18500;43.618;1.474;2024-03-29T13:30:10;13.68;;;4.53;;
31974;SDS011;18500;43.618;1.474;2024-03-29T13:32:40;11.52;;;3.95;;
31974;SDS011;18500;43.618;1.474;2024-03-29T13:35:06;13.32;;;4.88;;
31974;SDS011;18500;43.618;1.474;2024-03-29T13:37:43;12.98;;;4.65;;
31974;SDS011;18500;43.618;1.474;2024-03-29T13:40:11;16.40;;;4.95;;
31974;SDS011;18500;43.618;1.474;2024-03-29T13:42:37;14.23;;;4.25;;
31974;SDS011;18500;43.618;1.474;2024-03-29T13:45:04;12.65;;;4.13;;
31974;SDS011;18500;43.618;1.474;2024-03-29T13:47:31;14.93;;;4.38;;
31974;SDS011;18500;43.618;1.474;2024-03-29T13:49:58;14.60;;;4.07;;
31974;SDS011;18500;43.618;1.474;2024-03-29T13:52:24;11.63;;;4.35;;
31974;SDS011;18500;43.618;1.474;2024-03-29T13:54:49;18.05;;;5.20;;
31974;SDS011;18500;43.618;1.474;2024-03-29T13:57:18;18.25;;;4.80;;
31974;SDS011;18500;43.618;1.474;2024-03-29T13:59:44;8.73;;;2.63;;
31974;SDS011;18500;43.618;1.474;2024-03-29T14:02:11;11.77;;;2.40;;
31974;SDS011;18500;43.618;1.474;2024-03-29T14:04:38;27.02;;;3.55;;
31974;SDS011;18500;43.618;1.474;2024-03-29T14:07:04;2.72;;;2.03;;
31974;SDS011;18500;43.618;1.474;2024-03-29T14:09:34;3.90;;;2.20;;
31974;SDS011;18500;43.618;1.474;2024-03-29T14:12:00;4.00;;;2.10;;
31974;SDS011;18500;43.618;1.474;2024-03-29T14:14:26;23.50;;;3.25;;
31974;SDS011;18500;43.618;1.474;2024-03-29T14:16:51;5.15;;;2.70;;
31974;SDS011;18500;43.618;1.474;2024-03-29T14:19:17;7.85;;;2.45;;
31974;SDS011;18500;43.618;1.474;2024-03-29T14:21:42;6.28;;;3.05;;
31974;SDS011;18500;43.618;1.474;2024-03-29T14:24:08;3.83;;;2.78;;
31974;SDS011;18500;43.618;1.474;2024-03-29T14:26:34;11.75;;;4.18;;
31974;SDS011;18500;43.618;1.474;2024-03-29T14:28:59;11.02;;;3.25;;
31974;SDS011;18500;43.618;1.474;2024-03-29T14:31:25;7.45;;;2.22;;
31974;SDS011;18500;43.618;1.474;2024-03-29T14:33:50;4.90;;;3.20;;
31974;SDS011;18500;43.618;1.474;2024-03-29T14:36:16;3.63;;;3.40;;
31974;SDS011;18500;43.618;1.474;2024-03-29T14:38:43;4.50;;;4.03;;
31974;SDS011;18500;43.618;1.474;2024-03-29T14:41:09;5.22;;;4.82;;
31974;SDS011;18500;43.618;1.474;2024-03-29T14:43:35;5.25;;;4.68;;
31974;SDS011;18500;43.618;1.474;2024-03-29T14:46:01;6.40;;;6.00;;
31974;SDS011;18500;43.618;1.474;2024-03-29T14:48:27;6.25;;;5.93;;
31974;SDS011;18500;43.618;1.474;2024-03-29T14:50:52;8.70;;;7.72;;
31974;SDS011;18500;43.618;1.474;2024-03-29T14:53:21;8.77;;;8.27;;
31974;SDS011;18500;43.618;1.474;2024-03-29T14:55:47;10.98;;;10.18;;
31974;SDS011;18500;43.618;1.474;2024-03-29T14:58:12;11.13;;;10.52;;
31974;SDS011;18500;43.618;1.474;2024-03-29T15:00:38;11.77;;;10.77;;
31974;SDS011;18500;43.618;1.474;2024-03-29T15:03:04;11.45;;;10.30;;
31974;SDS011;18500;43.618;1.474;2024-03-29T15:05:30;20.85;;;13.90;;
31974;SDS011;18500;43.618;1.474;2024-03-29T15:07:56;12.75;;;11.95;;
31974;SDS011;18500;43.618;1.474;2024-03-29T15:10:22;13.27;;;12.57;;
31974;SDS011;18500;43.618;1.474;2024-03-29T15:12:48;14.82;;;14.02;;
31974;SDS011;18500;43.618;1.474;2024-03-29T15:15:14;14.18;;;13.45;;
31974;SDS011;18500;43.618;1.474;2024-03-29T15:17:40;16.38;;;15.48;;
31974;SDS011;18500;43.618;1.474;2024-03-29T15:20:06;17.58;;;16.48;;
31974;SDS011;18500;43.618;1.474;2024-03-29T15:22:34;16.67;;;15.80;;
31974;SDS011;18500;43.618;1.474;2024-03-29T15:25:01;22.45;;;16.33;;
31974;SDS011;18500;43.618;1.474;2024-03-29T15:27:27;16.30;;;15.50;;
31974;SDS011;18500;43.618;1.474;2024-03-29T15:30:15;19.80;;;18.38;;
31974;SDS011;18500;43.618;1.474;2024-03-29T15:32:41;17.67;;;16.80;;
31974;SDS011;18500;43.618;1.474;2024-03-29T15:35:07;20.75;;;19.45;;
31974;SDS011;18500;43.618;1.474;2024-03-29T15:37:33;19.65;;;18.30;;
31974;SDS011;18500;43.618;1.474;2024-03-29T15:40:00;19.70;;;18.70;;
31974;SDS011;18500;43.618;1.474;2024-03-29T15:42:26;20.35;;;19.25;;
31974;SDS011;18500;43.618;1.474;2024-03-29T15:44:52;21.13;;;20.02;;
31974;SDS011;18500;43.618;1.474;2024-03-29T15:47:17;19.20;;;18.25;;
31974;SDS011;18500;43.618;1.474;2024-03-29T15:49:43;25.08;;;22.00;;
31974;SDS011;18500;43.618;1.474;2024-03-29T15:52:08;18.83;;;17.55;;
31974;SDS011;18500;43.618;1.474;2024-03-29T15:54:34;20.30;;;19.00;;
31974;SDS011;18500;43.618;1.474;2024-03-29T15:57:00;19.70;;;18.73;;
31974;SDS011;18500;43.618;1.474;2024-03-29T15:59:26;20.65;;;19.55;;
31974;SDS011;18500;43.618;1.474;2024-03-29T16:01:52;18.60;;;17.65;;
31974;SDS011;18500;43.618;1.474;2024-03-29T16:04:17;17.67;;;16.63;;
31974;SDS011;18500;43.618;1.474;2024-03-29T16:06:43;20.75;;;18.50;;
31974;SDS011;18500;43.618;1.474;2024-03-29T16:09:09;19.42;;;17.33;;
31974;SDS011;18500;43.618;1.474;2024-03-29T16:11:36;18.48;;;17.48;;
31974;SDS011;18500;43.618;1.474;2024-03-29T16:14:03;17.90;;;16.75;;
31974;SDS011;18500;43.618;1.474;2024-03-29T16:16:30;15.43;;;14.52;;
31974;SDS011;18500;43.618;1.474;2024-03-29T16:18:58;14.70;;;13.98;;
31974;SDS011;18500;43.618;1.474;2024-03-29T16:21:24;22.40;;;13.30;;
31974;SDS011;18500;43.618;1.474;2024-03-29T16:23:51;12.23;;;11.50;;
31974;SDS011;18500;43.618;1.474;2024-03-29T16:26:17;10.77;;;10.00;;
31974;SDS011;18500;43.618;1.474;2024-03-29T16:28:42;8.88;;;8.13;;
31974;SDS011;18500;43.618;1.474;2024-03-29T16:31:08;7.72;;;7.13;;
31974;SDS011;18500;43.618;1.474;2024-03-29T16:33:34;6.13;;;5.75;;
31974;SDS011;18500;43.618;1.474;2024-03-29T16:36:03;7.47;;;5.45;;
31974;SDS011;18500;43.618;1.474;2024-03-29T16:38:30;5.82;;;5.50;;
31974;SDS011;18500;43.618;1.474;2024-03-29T16:40:56;5.03;;;4.70;;
31974;SDS011;18500;43.618;1.474;2024-03-29T16:43:21;4.50;;;4.25;;
31974;SDS011;18500;43.618;1.474;2024-03-29T16:45:47;6.07;;;4.38;;
31974;SDS011;18500;43.618;1.474;2024-03-29T16:48:13;4.97;;;4.03;;
31974;SDS011;18500;43.618;1.474;2024-03-29T16:50:38;3.67;;;3.47;;
31974;SDS011;18500;43.618;1.474;2024-03-29T16:53:04;6.57;;;3.40;;
31974;SDS011;18500;43.618;1.474;2024-03-29T16:55:30;3.35;;;3.15;;
31974;SDS011;18500;43.618;1.474;2024-03-29T16:57:57;4.10;;;3.08;;
31974;SDS011;18500;43.618;1.474;2024-03-29T17:00:23;4.63;;;3.00;;
31974;SDS011;18500;43.618;1.474;2024-03-29T17:02:49;4.30;;;2.35;;
31974;SDS011;18500;43.618;1.474;2024-03-29T17:05:16;2.53;;;2.33;;
31974;SDS011;18500;43.618;1.474;2024-03-29T17:07:42;9.55;;;2.80;;
31974;SDS011;18500;43.618;1.474;2024-03-29T17:10:07;9.38;;;2.08;;
31974;SDS011;18500;43.618;1.474;2024-03-29T17:12:33;8.35;;;2.50;;
31974;SDS011;18500;43.618;1.474;2024-03-29T17:14:59;4.10;;;2.00;;
31974;SDS011;18500;43.618;1.474;2024-03-29T17:17:26;5.57;;;2.13;;
31974;SDS011;18500;43.618;1.474;2024-03-29T17:19:53;1.85;;;1.75;;
31974;SDS011;18500;43.618;1.474;2024-03-29T17:22:19;8.60;;;2.22;;
31974;SDS011;18500;43.618;1.474;2024-03-29T17:24:46;21.85;;;4.13;;
31974;SDS011;18500;43.618;1.474;2024-03-29T17:27:12;2.05;;;1.95;;
31974;SDS011;18500;43.618;1.474;2024-03-29T17:29:38;5.00;;;2.30;;
31974;SDS011;18500;43.618;1.474;2024-03-29T17:32:04;3.40;;;3.20;;
31974;SDS011;18500;43.618;1.474;2024-03-29T17:34:30;2.67;;;2.47;;
31974;SDS011;18500;43.618;1.474;2024-03-29T17:36:56;4.50;;;4.20;;
31974;SDS011;18500;43.618;1.474;2024-03-29T17:39:22;4.10;;;3.30;;
31974;SDS011;18500;43.618;1.474;2024-03-29T17:41:48;27.67;;;4.97;;
31974;SDS011;18500;43.618;1.474;2024-03-29T17:44:14;3.95;;;3.75;;
31974;SDS011;18500;43.618;1.474;2024-03-29T17:46:43;10.82;;;4.22;;
31974;SDS011;18500;43.618;1.474;2024-03-29T17:49:11;6.32;;;5.93;;
31974;SDS011;18500;43.618;1.474;2024-03-29T17:51:37;12.95;;;9.18;;
31974;SDS011;18500;43.618;1.474;2024-03-29T17:54:03;8.32;;;7.28;;
31974;SDS011;18500;43.618;1.474;2024-03-29T17:56:30;8.75;;;8.15;;
31974;SDS011;18500;43.618;1.474;2024-03-29T17:58:56;11.73;;;11.07;;
31974;SDS011;18500;43.618;1.474;2024-03-29T18:01:23;11.00;;;10.30;;
31974;SDS011;18500;43.618;1.474;2024-03-29T18:03:49;12.15;;;10.77;;
31974;SDS011;18500;43.618;1.474;2024-03-29T18:06:15;12.02;;;11.43;;
31974;SDS011;18500;43.618;1.474;2024-03-29T18:08:41;11.70;;;10.68;;
31974;SDS011;18500;43.618;1.474;2024-03-29T18:11:07;12.63;;;11.82;;
31974;SDS011;18500;43.618;1.474;2024-03-29T18:13:33;14.93;;;13.98;;
31974;SDS011;18500;43.618;1.474;2024-03-29T18:16:02;13.50;;;12.30;;
31974;SDS011;18500;43.618;1.474;2024-03-29T18:18:29;15.48;;;14.48;;
31974;SDS011;18500;43.618;1.474;2024-03-29T18:20:56;20.30;;;19.25;;
31974;SDS011;18500;43.618;1.474;2024-03-29T18:23:21;18.40;;;17.23;;
31974;SDS011;18500;43.618;1.474;2024-03-29T18:25:47;16.25;;;15.45;;
31974;SDS011;18500;43.618;1.474;2024-03-29T18:28:12;15.73;;;14.75;;
31974;SDS011;18500;43.618;1.474;2024-03-29T18:30:38;18.45;;;17.45;;
31974;SDS011;18500;43.618;1.474;2024-03-29T18:33:04;27.10;;;25.52;;
31974;SDS011;18500;43.618;1.474;2024-03-29T18:35:31;36.10;;;33.88;;
31974;SDS011;18500;43.618;1.474;2024-03-29T18:37:58;36.33;;;34.40;;
31974;SDS011;18500;43.618;1.474;2024-03-29T18:40:24;32.97;;;31.25;;
31974;SDS011;18500;43.618;1.474;2024-03-29T18:42:49;32.83;;;30.85;;
31974;SDS011;18500;43.618;1.474;2024-03-29T18:45:17;28.67;;;27.23;;
31974;SDS011;18500;43.618;1.474;2024-03-29T18:47:46;27.80;;;26.00;;
31974;SDS011;18500;43.618;1.474;2024-03-29T18:50:15;24.85;;;23.38;;
31974;SDS011;18500;43.618;1.474;2024-03-29T18:52:44;18.10;;;17.20;;
31974;SDS011;18500;43.618;1.474;2024-03-29T18:55:11;17.15;;;16.15;;
31974;SDS011;18500;43.618;1.474;2024-03-29T18:57:37;21.35;;;20.17;;
31974;SDS011;18500;43.618;1.474;2024-03-29T19:00:08;25.15;;;23.55;;
31974;SDS011;18500;43.618;1.474;2024-03-29T19:02:35;23.30;;;21.90;;
31974;SDS011;18500;43.618;1.474;2024-03-29T19:05:02;22.45;;;21.33;;
31974;SDS011;18500;43.618;1.474;2024-03-29T19:07:27;18.75;;;17.63;;
31974;SDS011;18500;43.618;1.474;2024-03-29T19:09:53;19.20;;;18.23;;
31974;SDS011;18500;43.618;1.474;2024-03-29T19:12:19;18.80;;;17.77;;
31974;SDS011;18500;43.618;1.474;2024-03-29T19:14:46;18.67;;;17.65;;
31974;SDS011;18500;43.618;1.474;2024-03-29T19:17:13;29.60;;;27.60;;
31974;SDS011;18500;43.618;1.474;2024-03-29T19:19:39;58.33;;;54.88;;
31974;SDS011;18500;43.618;1.474;2024-03-29T19:22:05;59.47;;;56.58;;
31974;SDS011;18500;43.618;1.474;2024-03-29T19:24:31;81.35;;;77.15;;
31974;SDS011;18500;43.618;1.474;2024-03-29T19:26:57;106.80;;;101.20;;
31974;SDS011;18500;43.618;1.474;2024-03-29T19:29:22;80.88;;;76.82;;
31974;SDS011;18500;43.618;1.474;2024-03-29T19:31:48;72.40;;;68.88;;
31974;SDS011;18500;43.618;1.474;2024-03-29T19:34:14;78.07;;;74.28;;
31974;SDS011;18500;43.618;1.474;2024-03-29T19:36:40;81.28;;;77.25;;
31974;SDS011;18500;43.618;1.474;2024-03-29T19:39:06;95.22;;;90.40;;
31974;SDS011;18500;43.618;1.474;2024-03-29T19:41:38;92.90;;;87.70;;
31974;SDS011;18500;43.618;1.474;2024-03-29T19:44:04;86.57;;;82.30;;
31974;SDS011;18500;43.618;1.474;2024-03-29T19:46:32;76.65;;;72.93;;
31974;SDS011;18500;43.618;1.474;2024-03-29T19:48:59;77.68;;;73.82;;
31974;SDS011;18500;43.618;1.474;2024-03-29T19:51:26;84.25;;;79.10;;
31974;SDS011;18500;43.618;1.474;2024-03-29T19:53:52;88.05;;;83.78;;
31974;SDS011;18500;43.618;1.474;2024-03-29T19:56:18;85.05;;;80.90;;
31974;SDS011;18500;43.618;1.474;2024-03-29T19:58:47;74.13;;;70.55;;
31974;SDS011;18500;43.618;1.474;2024-03-29T20:01:13;87.03;;;82.22;;
31974;SDS011;18500;43.618;1.474;2024-03-29T20:03:39;86.38;;;82.05;;
31974;SDS011;18500;43.618;1.474;2024-03-29T20:06:05;107.80;;;102.20;;
31974;SDS011;18500;43.618;1.474;2024-03-29T20:08:31;107.68;;;102.28;;
31974;SDS011;18500;43.618;1.474;2024-03-29T20:10:56;116.10;;;110.53;;
31974;SDS011;18500;43.618;1.474;2024-03-29T20:13:22;119.22;;;113.32;;
31974;SDS011;18500;43.618;1.474;2024-03-29T20:15:48;120.80;;;114.85;;
31974;SDS011;18500;43.618;1.474;2024-03-29T20:18:14;112.82;;;107.10;;
31974;SDS011;18500;43.618;1.474;2024-03-29T20:20:50;94.40;;;89.72;;
31974;SDS011;18500;43.618;1.474;2024-03-29T20:23:17;105.03;;;99.78;;
31974;SDS011;18500;43.618;1.474;2024-03-29T20:25:43;144.00;;;136.85;;
31974;SDS011;18500;43.618;1.474;2024-03-29T20:28:12;76.68;;;72.85;;
31974;SDS011;18500;43.618;1.474;2024-03-29T20:30:39;77.15;;;73.25;;
31974;SDS011;18500;43.618;1.474;2024-03-29T20:33:05;82.22;;;77.80;;
31974;SDS011;18500;43.618;1.474;2024-03-29T20:35:38;74.00;;;70.20;;
31974;SDS011;18500;43.618;1.474;2024-03-29T20:38:04;73.07;;;69.55;;
31974;SDS011;18500;43.618;1.474;2024-03-29T20:40:30;75.43;;;71.78;;
31974;SDS011;18500;43.618;1.474;2024-03-29T20:42:56;69.53;;;66.13;;
31974;SDS011;18500;43.618;1.474;2024-03-29T20:45:21;69.30;;;65.90;;
31974;SDS011;18500;43.618;1.474;2024-03-29T20:47:47;63.83;;;60.78;;
31974;SDS011;18500;43.618;1.474;2024-03-29T20:50:13;59.30;;;56.45;;
31974;SDS011;18500;43.618;1.474;2024-03-29T20:52:38;56.63;;;53.97;;
31974;SDS011;18500;43.618;1.474;2024-03-29T20:55:04;48.42;;;46.13;;
31974;SDS011;18500;43.618;1.474;2024-03-29T20:57:32;43.05;;;40.95;;
31974;SDS011;18500;43.618;1.474;2024-03-29T20:59:58;41.72;;;39.63;;
31974;SDS011;18500;43.618;1.474;2024-03-29T21:02:24;36.60;;;34.83;;
31974;SDS011;18500;43.618;1.474;2024-03-29T21:05:09;33.53;;;31.67;;
31974;SDS011;18500;43.618;1.474;2024-03-29T21:07:53;25.70;;;24.38;;
31974;SDS011;18500;43.618;1.474;2024-03-29T21:10:19;31.00;;;29.23;;
31974;SDS011;18500;43.618;1.474;2024-03-29T21:12:45;30.42;;;28.85;;
31974;SDS011;18500;43.618;1.474;2024-03-29T21:15:11;28.52;;;26.92;;
31974;SDS011;18500;43.618;1.474;2024-03-29T21:17:38;31.08;;;29.50;;
31974;SDS011;18500;43.618;1.474;2024-03-29T21:20:04;29.42;;;27.95;;
31974;SDS011;18500;43.618;1.474;2024-03-29T21:22:34;31.00;;;29.33;;
31974;SDS011;18500;43.618;1.474;2024-03-29T21:27:34;17.73;;;16.77;;
31974;SDS011;18500;43.618;1.474;2024-03-29T21:30:01;19.02;;;18.13;;
31974;SDS011;18500;43.618;1.474;2024-03-29T21:32:27;21.92;;;20.67;;